Izmit, Turkey
Current Conditions -  °F | °C
As of 10:50 PM on Friday 21 Nov 2014 (Local Time) from LTBQ Reporting Station
Broken Clouds Broken Clouds  
Wind Chill: 42°   Ceiling: 3000
Heat Index: 46°   Visibility: 5mi
Dew Point: 43°   Wind: 8mph
Humidity: 87%   Direction: 280°W
Pressure: 30.09"   Gusts: NA
Location:  40.77°N, 29.93°E
Report Text: LTBQ 211950Z 28007KT 8000 FEW019 BKN030 BKN100 08/06 Q1019 RESHRA NOSIG
Loading
Personal Weather Stations






























Interactive Weather Map New forecast layout! Learn more

10-Day Weather Forecast

Advertisements
Track Severe Weather on mobile